Time;durP1;ratioP1;P1;durP2;ratioP2;P2;SDS_P1;SDS_P2;PMS_P1;PMS_P2;Temp;Humidity;BMP_temperature;BMP_pressure;BME280_temperature;BME280_humidity;BME280_pressure;Samples;Min_cycle;Max_cycle;Signal;HPM_P1;HPM_P2
2021/08/20 00:00:05;;;;;;;0.70;0.60;;;;;;;16.64;100.00;-21133.63;5032745;28;20504;-67
2021/08/20 00:02:38;;;;;;;0.90;0.90;;;;;;;16.67;100.00;-21134.31;5045340;28;20443;-68
2021/08/20 00:05:07;;;;;;;0.80;0.70;;;;;;;16.61;100.00;-21132.66;5052650;28;20470;-67
2021/08/20 00:07:34;;;;;;;0.80;0.80;;;;;;;16.65;100.00;-21133.75;5052021;28;20475;-67
2021/08/20 00:10:03;;;;;;;0.70;0.60;;;;;;;16.69;100.00;-21134.72;5053438;28;20925;-66
2021/08/20 00:12:30;;;;;;;0.80;0.80;;;;;;;16.86;100.00;-21139.53;5036553;28;20495;-68
2021/08/20 00:14:57;;;;;;;0.70;0.70;;;;;;;16.87;100.00;-21139.81;5032207;28;20497;-67
2021/08/20 00:17:25;;;;;;;0.70;0.60;;;;;;;16.96;100.00;-21142.00;5033612;28;20456;-69
2021/08/20 00:19:52;;;;;;;0.70;0.70;;;;;;;17.06;100.00;-21144.88;5033671;28;20443;-68
2021/08/20 00:22:20;;;;;;;0.70;0.70;;;;;;;17.05;100.00;-21144.47;5048662;28;20851;-68
2021/08/20 00:24:46;;;;;;;0.70;0.70;;;;;;;17.06;100.00;-21144.88;5053298;28;20462;-68
2021/08/20 00:27:15;;;;;;;0.80;0.70;;;;;;;17.10;100.00;-21145.97;5053246;28;20433;-68
2021/08/20 00:29:44;;;;;;;0.70;0.60;;;;;;;17.14;100.00;-21146.94;5035956;28;20436;-69
2021/08/20 00:32:12;;;;;;;0.70;0.67;;;;;;;17.11;100.00;-21146.13;5050552;28;20453;-68
2021/08/20 00:34:39;;;;;;;0.70;0.60;;;;;;;17.17;100.00;-21147.63;5046709;28;20443;-68
2021/08/20 00:37:29;;;;;;;0.70;0.70;;;;;;;17.08;100.00;-21145.28;5037598;28;20475;-68
2021/08/20 00:39:57;;;;;;;0.70;0.60;;;;;;;17.00;100.00;-21143.09;5020024;28;20479;-68
2021/08/20 00:42:26;;;;;;;0.80;0.70;;;;;;;16.99;100.00;-21142.81;5041344;28;20436;-68
2021/08/20 00:44:54;;;;;;;0.70;0.70;;;;;;;17.02;100.00;-21143.78;5037761;28;20551;-68
2021/08/20 00:47:21;;;;;;;0.70;0.60;;;;;;;17.08;100.00;-21145.28;5034021;28;20440;-68
2021/08/20 00:49:50;;;;;;;0.70;0.60;;;;;;;17.08;100.00;-21145.44;5035848;28;20440;-68
2021/08/20 00:52:19;;;;;;;0.70;0.70;;;;;;;17.07;100.00;-21145.16;5051699;28;20543;-68
2021/08/20 00:54:46;;;;;;;3.53;1.77;;;;;;;17.06;100.00;-21144.88;5067943;28;20446;-67
2021/08/20 00:57:14;;;;;;;0.70;0.70;;;;;;;17.06;100.00;-21144.88;5056044;28;20786;-68
2021/08/20 00:59:46;;;;;;;0.80;0.80;;;;;;;17.05;100.00;-21144.47;5056933;28;20429;-68
2021/08/20 01:02:14;;;;;;;0.80;0.70;;;;;;;17.02;100.00;-21143.66;5054768;28;20445;-68
2021/08/20 01:04:42;;;;;;;0.73;0.70;;;;;;;16.88;100.00;-21140.06;5055723;28;20412;-67
2021/08/20 01:07:09;;;;;;;0.70;0.70;;;;;;;16.87;100.00;-21139.81;5054290;28;20458;-68
2021/08/20 01:09:58;;;;;;;1.03;1.03;;;;;;;16.79;100.00;-21137.63;5056371;28;20486;-69
2021/08/20 01:12:27;;;;;;;0.70;0.60;;;;;;;16.76;100.00;-21136.66;5036709;28;20448;-66
2021/08/20 01:14:56;;;;;;;0.70;0.70;;;;;;;16.71;100.00;-21135.41;5035817;28;20488;-66
2021/08/20 01:17:23;;;;;;;0.80;0.70;;;;;;;16.77;100.00;-21137.06;5036066;28;21000;-67
2021/08/20 01:19:53;;;;;;;0.80;0.80;;;;;;;16.88;100.00;-21140.06;5035746;28;20535;-66
2021/08/20 01:22:21;;;;;;;0.70;0.67;;;;;;;16.85;100.00;-21139.25;5053505;28;20545;-67
2021/08/20 01:24:49;;;;;;;0.70;0.70;;;;;;;16.87;100.00;-21139.81;5035919;28;20450;-66
2021/08/20 01:27:22;;;;;;;0.70;0.70;;;;;;;16.87;100.00;-21139.81;5055167;28;20444;-68
2021/08/20 01:29:50;;;;;;;1.00;0.83;;;;;;;16.90;100.00;-21140.63;5038939;28;20444;-68
2021/08/20 01:32:19;;;;;;;0.80;0.70;;;;;;;16.97;100.00;-21142.28;5051217;28;20491;-66
2021/08/20 01:34:46;;;;;;;0.80;0.70;;;;;;;16.89;100.00;-21140.34;5054938;28;20925;-68
2021/08/20 01:37:14;;;;;;;0.70;0.70;;;;;;;17.00;100.00;-21143.09;5038266;28;21001;-68
2021/08/20 01:39:41;;;;;;;0.70;0.70;;;;;;;16.94;100.00;-21141.59;5018652;28;20987;-69
2021/08/20 01:42:12;;;;;;;0.80;0.70;;;;;;;16.96;100.00;-21142.13;5022395;28;20441;-66
2021/08/20 01:44:41;;;;;;;0.80;0.70;;;;;;;16.95;100.00;-21141.88;5038421;28;20458;-68
2021/08/20 01:47:10;;;;;;;0.70;0.60;;;;;;;16.99;100.00;-21142.81;5054857;28;20418;-69
2021/08/20 01:49:38;;;;;;;1.47;1.37;;;;;;;17.01;100.00;-21143.50;5054653;28;20449;-68
2021/08/20 01:52:25;;;;;;;0.70;0.70;;;;;;;16.95;100.00;-21141.72;5056175;28;20440;-68
2021/08/20 01:54:52;;;;;;;0.70;0.70;;;;;;;16.94;100.00;-21141.59;5054498;28;20443;-68
2021/08/20 01:57:19;;;;;;;0.70;0.60;;;;;;;16.88;100.00;-21140.06;5054152;28;20490;-68
2021/08/20 02:00:09;;;;;;;0.70;0.70;;;;;;;16.82;100.00;-21138.44;5034984;28;20478;-68
2021/08/20 02:02:45;;;;;;;0.70;0.60;;;;;;;16.72;100.00;-21135.69;5054368;28;20925;-67
2021/08/20 02:05:16;;;;;;;0.70;0.63;;;;;;;16.75;100.00;-21136.50;5038441;28;20466;-67
2021/08/20 02:07:44;;;;;;;0.70;0.70;;;;;;;16.66;100.00;-21134.03;5052829;28;20501;-68
2021/08/20 02:10:15;;;;;;;0.70;0.70;;;;;;;16.78;100.00;-21137.19;5034598;28;20437;-67
2021/08/20 02:12:43;;;;;;;0.80;0.80;;;;;;;16.77;100.00;-21136.94;5036845;28;20449;-66
2021/08/20 02:15:13;;;;;;;0.80;0.80;;;;;;;16.76;100.00;-21136.66;5039914;28;20443;-69
2021/08/20 02:17:40;;;;;;;0.70;0.60;;;;;;;16.77;100.00;-21137.06;5039756;28;20826;-67
2021/08/20 02:20:15;;;;;;;0.70;0.70;;;;;;;16.69;100.00;-21134.88;5054295;28;20475;-68
2021/08/20 02:22:46;;;;;;;0.93;0.93;;;;;;;16.62;100.00;-21132.94;5052786;28;20498;-69
2021/08/20 02:25:14;;;;;;;0.80;0.70;;;;;;;16.58;100.00;-21131.84;5054288;28;20522;-72
2021/08/20 02:27:44;;;;;;;0.70;0.60;;;;;;;16.54;100.00;-21130.75;5053562;28;20442;-68
2021/08/20 02:30:13;;;;;;;0.70;0.70;;;;;;;16.62;100.00;-21132.94;5045853;28;20455;-68
2021/08/20 02:32:47;;;;;;;0.70;0.60;;;;;;;16.61;100.00;-21132.66;5042878;28;20441;-67
2021/08/20 02:35:22;;;;;;;0.70;0.60;;;;;;;16.56;100.00;-21131.28;5018661;28;20447;-68
2021/08/20 02:37:50;;;;;;;0.80;0.70;;;;;;;16.62;100.00;-21132.94;5036519;28;20478;-68
2021/08/20 02:40:17;;;;;;;0.70;0.70;;;;;;;16.56;100.00;-21131.44;5053735;28;20524;-68
2021/08/20 02:42:48;;;;;;;0.70;0.70;;;;;;;16.56;100.00;-21131.44;5033959;28;20455;-68
2021/08/20 02:45:17;;;;;;;0.70;0.70;;;;;;;16.59;100.00;-21132.25;5033747;28;20441;-68
2021/08/20 02:47:47;;;;;;;0.70;0.60;;;;;;;16.53;100.00;-21130.59;5036320;28;20463;-68
2021/08/20 02:50:15;;;;;;;0.80;0.80;;;;;;;16.56;100.00;-21131.28;5053872;28;20438;-69
2021/08/20 02:52:44;;;;;;;0.70;0.60;;;;;;;16.57;100.00;-21131.72;5053226;28;20474;-69
2021/08/20 02:55:12;;;;;;;0.73;0.73;;;;;;;16.54;100.00;-21130.88;5048887;28;20435;-68
2021/08/20 02:57:42;;;;;;;0.80;0.80;;;;;;;16.50;100.00;-21129.66;5052762;28;20415;-68
2021/08/20 03:00:10;;;;;;;0.70;0.60;;;;;;;16.50;100.00;-21129.66;5053380;28;20437;-69
2021/08/20 03:02:39;;;;;;;0.70;0.60;;;;;;;16.45;100.00;-21128.41;5052242;28;20456;-69
2021/08/20 03:05:07;;;;;;;0.70;0.60;;;;;;;16.42;100.00;-21127.59;5052675;28;20930;-66
2021/08/20 03:07:36;;;;;;;0.70;0.70;;;;;;;16.35;100.00;-21125.66;5046065;28;20441;-67
2021/08/20 03:10:26;;;;;;;0.77;0.70;;;;;;;16.34;100.00;-21125.38;5034556;28;20454;-66
2021/08/20 03:12:53;;;;;;;0.80;0.70;;;;;;;16.21;100.00;-21121.97;5034038;28;20469;-66
2021/08/20 03:15:21;;;;;;;0.70;0.70;;;;;;;16.10;100.00;-21118.94;5033788;28;20426;-66
2021/08/20 03:17:50;;;;;;;0.80;0.80;;;;;;;16.06;100.00;-21117.97;5033242;28;20433;-67
2021/08/20 03:20:17;;;;;;;0.70;0.70;;;;;;;16.02;100.00;-21116.75;5035188;28;20539;-67
2021/08/20 03:22:44;;;;;;;0.80;0.80;;;;;;;15.94;100.00;-21114.81;5048109;28;20468;-67
2021/08/20 03:25:15;;;;;;;0.80;0.80;;;;;;;15.89;100.00;-21113.44;5036504;28;20436;-66
2021/08/20 03:27:43;;;;;;;0.70;0.70;;;;;;;15.90;100.00;-21113.72;5053035;28;20490;-67
2021/08/20 03:30:44;;;;;;;0.70;0.60;;;;;;;15.86;100.00;-21112.63;5052728;28;20798;-68
2021/08/20 03:33:14;;;;;;;2.33;1.37;;;;;;;15.88;100.00;-20924.22;5052823;28;20505;-67
2021/08/20 03:35:50;;;;;;;0.80;0.70;;;;;;;15.92;100.00;-20455.47;5036581;28;20442;-68
2021/08/20 03:38:21;;;;;;;1.27;1.17;;;;;;;15.85;100.00;-19854.91;5032899;28;20460;-67
2021/08/20 03:40:50;;;;;;;0.70;0.60;;;;;;;15.86;100.00;-19039.09;5033860;28;20480;-68
2021/08/20 03:43:21;;;;;;;0.87;0.87;;;;;;;15.88;100.00;-17876.75;5040157;28;20452;-66
2021/08/20 03:45:54;;;;;;;0.73;0.73;;;;;;;15.90;100.00;-16623.06;5052489;28;20459;-66
2021/08/20 03:48:29;;;;;;;0.70;0.60;;;;;;;15.91;100.00;-15763.09;5053549;28;20462;-66
2021/08/20 03:50:59;;;;;;;0.80;0.80;;;;;;;15.92;100.00;-14584.22;5037165;28;20446;-66
2021/08/20 03:53:26;;;;;;;0.70;0.70;;;;;;;15.91;100.00;-13490.53;5032733;28;20462;-69
2021/08/20 03:55:53;;;;;;;0.73;0.70;;;;;;;15.87;100.00;-11955.47;5052805;28;20506;-66
2021/08/20 03:58:58;;;;;;;0.80;0.80;;;;;;;15.85;100.00;-9685.19;5048170;28;21016;-66
2021/08/20 04:01:26;;;;;;;0.70;0.70;;;;;;;15.90;100.00;-8098.56;5042718;28;20470;-67
2021/08/20 04:03:58;;;;;;;0.70;0.70;;;;;;;15.99;100.00;-7703.41;5053074;28;20451;-67
2021/08/20 04:06:48;;;;;;;0.80;0.80;;;;;;;16.02;100.00;-6480.72;5052634;28;20483;-66
2021/08/20 04:09:16;;;;;;;0.80;0.80;;;;;;;16.05;100.00;-6668.59;5040445;28;20473;-67
2021/08/20 04:12:04;;;;;;;0.77;0.77;;;;;;;16.05;100.00;-7023.84;5033523;28;20447;-66
2021/08/20 04:14:44;;;;;;;0.80;0.70;;;;;;;16.08;100.00;-7536.50;5051596;28;20443;-66
2021/08/20 04:17:12;;;;;;;1.23;1.07;;;;;;;16.10;100.00;-7638.06;5051461;28;20435;-69
2021/08/20 04:19:41;;;;;;;0.70;0.70;;;;;;;16.12;100.00;-8186.13;5032450;28;20456;-68
2021/08/20 04:22:10;;;;;;;0.80;0.70;;;;;;;16.19;100.00;-8851.25;5032059;28;20524;-66
2021/08/20 04:24:41;;;;;;;0.80;0.80;;;;;;;16.25;100.00;-10063.94;5038335;28;20526;-67
2021/08/20 04:27:27;;;;;;;0.70;0.60;;;;;;;16.23;100.00;-12061.22;5036412;28;20453;-68
2021/08/20 04:30:01;;;;;;;0.70;0.67;;;;;;;16.29;100.00;-13440.38;5040699;28;20519;-68
2021/08/20 04:32:47;;;;;;;0.70;0.63;;;;;;;16.31;100.00;-14347.41;5051097;28;20784;-66
2021/08/20 04:35:27;;;;;;;0.73;0.70;;;;;;;16.34;100.00;-14580.91;5050727;28;20433;-69
2021/08/20 04:38:13;;;;;;;0.70;0.60;;;;;;;16.32;100.00;-14180.50;5049456;28;20485;-69
2021/08/20 04:41:00;;;;;;;1.80;1.63;;;;;;;16.36;100.00;-13568.09;5049631;28;20468;-68
2021/08/20 04:43:41;;;;;;;1.30;1.10;;;;;;;16.37;100.00;-13750.66;5050516;28;20444;-69
2021/08/20 04:46:33;;;;;;;0.70;0.70;;;;;;;16.42;100.00;-14258.03;5050078;28;20537;-69
2021/08/20 04:49:20;;;;;;;0.97;0.93;;;;;;;16.48;100.00;-14978.31;5049738;28;20460;-66
2021/08/20 04:52:23;;;;;;;0.80;0.70;;;;;;;16.51;100.00;-15860.19;5050667;28;20448;-66
2021/08/20 04:55:11;;;;;;;0.70;0.60;;;;;;;16.54;100.00;-16896.31;5052631;28;20998;-66
2021/08/20 04:57:38;;;;;;;1.33;0.97;;;;;;;16.52;100.00;-17700.94;5051850;28;20580;-66
2021/08/20 05:00:07;;;;;;;0.70;0.70;;;;;;;16.66;100.00;-18913.69;5051138;28;20541;-69
2021/08/20 05:02:36;;;;;;;0.70;0.70;;;;;;;16.75;100.00;-20307.50;5033010;28;20442;-68
2021/08/20 05:05:05;;;;;;;0.77;0.70;;;;;;;16.77;100.00;-21137.06;5033238;28;20495;-68
2021/08/20 05:07:35;;;;;;;0.80;0.80;;;;;;;16.86;100.00;-21139.41;5034954;28;20479;-68
2021/08/20 05:10:06;;;;;;;0.70;0.70;;;;;;;16.94;100.00;-21141.44;5053087;28;20415;-67
2021/08/20 05:12:33;;;;;;;0.70;0.60;;;;;;;16.97;100.00;-21142.28;5052982;28;20967;-68
2021/08/20 05:15:00;;;;;;;0.77;0.77;;;;;;;17.09;100.00;-21145.72;5048616;28;20472;-72
2021/08/20 05:17:27;;;;;;;0.70;0.60;;;;;;;17.10;100.00;-21145.84;5044212;28;20429;-68
2021/08/20 05:19:54;;;;;;;0.80;0.80;;;;;;;17.13;100.00;-21146.66;5051981;28;20457;-68
2021/08/20 05:22:21;;;;;;;0.80;0.70;;;;;;;17.21;100.00;-21148.84;5055293;28;20430;-68
2021/08/20 05:24:49;;;;;;;0.70;0.63;;;;;;;17.22;100.00;-21149.00;5056609;28;20423;-68
2021/08/20 05:27:16;;;;;;;0.80;0.70;;;;;;;17.25;100.00;-21149.97;5056597;28;20517;-68
2021/08/20 05:29:43;;;;;;;0.70;0.60;;;;;;;17.31;100.00;-21151.47;5055477;28;20442;-68
2021/08/20 05:32:10;;;;;;;0.80;0.70;;;;;;;17.26;100.00;-21150.09;5056004;28;20420;-68
2021/08/20 05:34:37;;;;;;;0.90;0.90;;;;;;;17.35;100.00;-21152.56;5056437;28;20492;-68
2021/08/20 05:37:04;;;;;;;0.77;0.70;;;;;;;17.29;100.00;-21151.06;5056465;28;20454;-68
2021/08/20 05:39:31;;;;;;;0.70;0.67;;;;;;;17.52;100.00;-21157.09;5054666;28;20482;-68
2021/08/20 05:42:02;;;;;;;1.07;0.97;;;;;;;17.48;100.00;-21156.00;5054887;28;20448;-68
2021/08/20 05:44:30;;;;;;;0.70;0.67;;;;;;;17.60;100.00;-21159.41;5054905;28;20439;-67
2021/08/20 05:46:56;;;;;;;0.80;0.70;;;;;;;17.59;100.00;-21159.13;5055360;28;20462;-68
2021/08/20 05:49:25;;;;;;;0.80;0.70;;;;;;;17.58;100.00;-21158.72;5056367;28;20442;-68
2021/08/20 05:51:52;;;;;;;0.83;0.83;;;;;;;17.68;100.00;-21161.47;5056111;28;20434;-67
2021/08/20 05:54:20;;;;;;;0.80;0.73;;;;;;;17.75;100.00;-21163.41;5055708;28;20451;-68
2021/08/20 05:56:47;;;;;;;0.70;0.70;;;;;;;17.78;100.00;-21164.22;5056052;28;20442;-68
2021/08/20 05:59:15;;;;;;;1.07;0.97;;;;;;;17.88;100.00;-21166.81;5056057;28;20430;-68
2021/08/20 06:01:42;;;;;;;0.80;0.70;;;;;;;17.95;100.00;-21168.59;5055379;28;20469;-68
2021/08/20 06:04:11;;;;;;;0.70;0.60;;;;;;;18.08;100.00;-21172.16;5053868;28;20456;-68
2021/08/20 06:06:39;;;;;;;0.70;0.60;;;;;;;18.14;100.00;-21173.81;5054469;28;20478;-68
2021/08/20 06:09:09;;;;;;;0.83;0.73;;;;;;;18.24;100.00;-21176.56;5053034;28;20477;-66
2021/08/20 06:11:36;;;;;;;0.80;0.80;;;;;;;18.26;100.00;-21176.97;5055877;28;20436;-68
2021/08/20 06:14:03;;;;;;;0.70;0.60;;;;;;;18.39;100.00;-21180.38;5055917;28;20517;-67
2021/08/20 06:16:32;;;;;;;0.80;0.80;;;;;;;18.49;100.00;-21183.25;5055607;28;20399;-68
2021/08/20 06:18:58;;;;;;;0.90;0.90;;;;;;;18.56;100.00;-21185.03;5050720;28;20441;-68
2021/08/20 06:21:25;;;;;;;0.70;0.60;;;;;;;18.70;100.00;-21188.88;5044405;28;20457;-68
2021/08/20 06:23:52;;;;;;;1.57;1.47;;;;;;;18.62;100.00;-21186.53;5035548;28;20448;-67
2021/08/20 06:26:19;;;;;;;1.10;1.00;;;;;;;18.82;100.00;-21192.16;5035829;28;20433;-68
2021/08/20 06:28:46;;;;;;;1.87;1.53;;;;;;;19.00;100.00;-21196.81;5035990;28;20933;-68
2021/08/20 06:31:15;;;;;;;0.70;0.70;;;;;;;19.05;100.00;-21198.19;5034884;28;20445;-68
2021/08/20 06:33:43;;;;;;;1.20;1.10;;;;;;;19.00;100.00;-21196.81;5050956;28;20393;-67
2021/08/20 06:36:10;;;;;;;0.70;0.70;;;;;;;19.08;100.00;-21198.88;5055231;28;20894;-68
2021/08/20 06:38:37;;;;;;;0.90;0.90;;;;;;;18.95;100.00;-21195.44;5054564;28;20440;-68
2021/08/20 06:41:04;;;;;;;0.70;0.60;;;;;;;18.99;100.00;-21196.69;5055259;28;20432;-67
2021/08/20 06:43:54;;;;;;;0.70;0.60;;;;;;;19.07;100.00;-21198.72;5054049;28;20489;-68
2021/08/20 06:46:22;;;;;;;0.70;0.60;;;;;;;19.01;100.00;-21197.22;5053544;28;20502;-68
2021/08/20 06:48:50;;;;;;;0.80;0.70;;;;;;;18.81;100.00;-21191.88;5055149;28;21017;-68
2021/08/20 06:51:20;;;;;;;1.00;0.90;;;;;;;18.82;100.00;-21192.03;5055123;28;20416;-67
2021/08/20 06:53:47;;;;;;;0.70;0.70;;;;;;;18.91;100.00;-21194.34;5054422;28;20964;-67
2021/08/20 06:56:14;;;;;;;1.73;1.63;;;;;;;18.94;100.00;-21195.16;5055024;28;20428;-70
2021/08/20 06:58:42;;;;;;;0.70;0.60;;;;;;;19.22;100.00;-21202.84;5054953;28;20434;-68
2021/08/20 07:01:09;;;;;;;0.80;0.70;;;;;;;19.22;100.00;-21202.69;5053472;28;20438;-68
2021/08/20 07:03:37;;;;;;;1.57;1.23;;;;;;;19.13;100.00;-21200.38;5054852;28;20793;-69
2021/08/20 07:06:05;;;;;;;0.70;0.70;;;;;;;19.36;100.00;-21206.53;5054695;28;20464;-68
2021/08/20 07:08:32;;;;;;;1.33;1.23;;;;;;;19.60;100.00;-21212.81;5053028;28;20479;-68
2021/08/20 07:10:59;;;;;;;0.70;0.60;;;;;;;19.70;100.00;-21215.56;5048442;28;20429;-68
2021/08/20 07:13:26;;;;;;;0.70;0.60;;;;;;;19.67;100.00;-21214.88;5037965;28;20472;-68
2021/08/20 07:15:53;;;;;;;1.10;1.00;;;;;;;20.19;100.00;-21228.81;5033973;28;20510;-68
2021/08/20 07:18:23;;;;;;;0.80;0.70;;;;;;;20.15;100.00;-21227.72;5047014;28;20403;-68
2021/08/20 07:20:50;;;;;;;1.10;1.00;;;;;;;19.96;100.00;-21222.66;5054311;28;20756;-69
2021/08/20 07:23:19;;;;;;;0.70;0.60;;;;;;;20.18;100.00;-21228.53;5054152;28;20452;-68
2021/08/20 07:25:46;;;;;;;0.70;0.70;;;;;;;19.95;100.00;-21222.25;5053296;28;21015;-68
2021/08/20 07:28:13;;;;;;;1.73;1.63;;;;;;;20.21;100.00;-21229.22;5054162;28;20546;-68
2021/08/20 07:30:40;;;;;;;0.80;0.70;;;;;;;20.33;100.00;-21232.34;5054193;28;20888;-68
2021/08/20 07:33:06;;;;;;;0.90;0.77;;;;;;;20.34;100.00;-21232.63;5053459;28;20536;-68
2021/08/20 07:35:36;;;;;;;0.80;0.70;;;;;;;20.61;100.00;-21240.00;5053966;28;20407;-69
2021/08/20 07:38:03;;;;;;;1.40;1.30;;;;;;;20.43;100.00;-21235.09;5052617;28;20473;-68
2021/08/20 07:40:31;;;;;;;1.10;1.00;;;;;;;20.49;100.00;-21236.72;5053947;28;20440;-68
2021/08/20 07:42:59;;;;;;;0.80;0.70;;;;;;;20.52;100.00;-21237.41;5052606;28;20415;-68
2021/08/20 07:45:26;;;;;;;0.80;0.73;;;;;;;20.67;100.00;-21241.66;5053662;28;20403;-68
2021/08/20 07:47:53;;;;;;;0.80;0.70;;;;;;;20.68;100.00;-21241.91;5053991;28;20456;-67
2021/08/20 07:50:21;;;;;;;0.70;0.70;;;;;;;20.58;100.00;-21239.19;5054008;28;20429;-69
2021/08/20 07:52:49;;;;;;;0.80;0.80;;;;;;;20.33;100.00;-21232.34;5052395;28;20469;-68
2021/08/20 07:55:17;;;;;;;0.70;0.70;;;;;;;20.44;100.00;-21235.38;5052816;28;20493;-68
2021/08/20 07:57:47;;;;;;;0.70;0.67;;;;;;;20.41;100.00;-21234.69;5052187;28;20434;-68
2021/08/20 08:00:19;;;;;;;1.00;0.90;;;;;;;20.54;100.00;-21237.97;5053532;28;20426;-68
2021/08/20 08:02:47;;;;;;;0.80;0.70;;;;;;;20.46;100.00;-21235.91;5053486;28;20864;-67
2021/08/20 08:05:14;;;;;;;0.70;0.60;;;;;;;20.56;100.00;-21238.66;5053871;28;20408;-67
2021/08/20 08:07:42;;;;;;;0.70;0.70;;;;;;;20.52;100.00;-21237.41;5053007;28;20472;-71
2021/08/20 08:10:30;;;;;;;1.43;1.33;;;;;;;20.87;100.00;-21246.84;5053816;28;20944;-68
2021/08/20 08:12:58;;;;;;;1.00;0.73;;;;;;;21.01;100.00;-21250.50;5053606;28;20910;-68
2021/08/20 08:15:25;;;;;;;1.43;0.97;;;;;;;21.49;100.00;-21263.47;5043318;28;20433;-68
2021/08/20 08:17:55;;;;;;;1.40;0.90;;;;;;;21.49;100.00;-21263.34;5052598;28;20447;-67
2021/08/20 08:20:24;;;;;;;0.80;0.70;;;;;;;21.52;100.00;-21264.28;5053759;28;20451;-68
2021/08/20 08:22:51;;;;;;;0.70;0.70;;;;;;;21.36;100.00;-21259.94;5053101;28;20493;-68
2021/08/20 08:25:20;;;;;;;0.70;0.70;;;;;;;20.99;100.00;-21250.09;5053283;28;20451;-68
2021/08/20 08:27:49;;;;;;;0.70;0.70;;;;;;;21.08;100.00;-21252.56;5053177;28;20451;-68
2021/08/20 08:30:19;;;;;;;1.30;0.93;;;;;;;21.41;100.00;-21261.28;5052536;28;20531;-68
2021/08/20 08:32:46;;;;;;;1.60;0.90;;;;;;;21.81;100.00;-21272.06;5053420;28;20424;-68
2021/08/20 08:35:13;;;;;;;0.70;0.60;;;;;;;22.21;100.00;-21282.56;5053499;28;20413;-68
2021/08/20 08:37:40;;;;;;;0.80;0.70;;;;;;;22.57;100.00;-21292.22;5053366;28;20761;-68
2021/08/20 08:40:09;;;;;;;0.70;0.60;;;;;;;22.40;100.00;-21287.72;5052796;28;20424;-68
2021/08/20 08:42:36;;;;;;;0.70;0.60;;;;;;;22.12;100.00;-21280.38;5053189;28;20466;-68
2021/08/20 08:45:06;;;;;;;0.70;0.60;;;;;;;21.86;100.00;-21273.28;5052302;28;20493;-68
2021/08/20 08:47:35;;;;;;;1.13;1.00;;;;;;;21.50;100.00;-21263.75;5053414;28;20456;-68
2021/08/20 08:50:05;;;;;;;0.70;0.60;;;;;;;21.81;100.00;-21271.94;5053355;28;20403;-68
2021/08/20 08:52:33;;;;;;;0.80;0.70;;;;;;;21.87;100.00;-21273.69;5052321;28;20420;-68
2021/08/20 08:55:02;;;;;;;0.70;0.70;;;;;;;21.92;100.00;-21274.94;5053390;28;20424;-69
2021/08/20 08:57:29;;;;;;;1.00;0.90;;;;;;;22.13;100.00;-21280.66;5056520;28;20931;-68
2021/08/20 08:59:57;;;;;;;0.80;0.80;;;;;;;22.20;100.00;-21282.41;5056781;28;20424;-68
2021/08/20 09:02:26;;;;;;;0.70;0.63;;;;;;;22.21;100.00;-21282.56;5055920;28;20444;-67
2021/08/20 09:04:57;;;;;;;0.70;0.60;;;;;;;22.13;100.00;-21280.66;5054732;28;20423;-69
2021/08/20 09:07:29;;;;;;;0.70;0.70;;;;;;;21.90;100.00;-21274.50;5047058;28;20470;-70
2021/08/20 09:10:13;;;;;;;0.93;0.87;;;;;;;21.76;100.00;-21270.56;5054169;28;20440;-68
2021/08/20 09:12:42;;;;;;;0.77;0.67;;;;;;;22.13;100.00;-21280.50;5056745;28;20429;-67
2021/08/20 09:15:10;;;;;;;0.70;0.60;;;;;;;21.93;100.00;-21275.34;5056894;28;20419;-68
2021/08/20 09:17:46;;;;;;;0.80;0.70;;;;;;;22.22;100.00;-21282.84;5055732;28;20814;-68
2021/08/20 09:20:19;;;;;;;0.70;0.60;;;;;;;22.02;100.00;-21277.66;5056933;28;20408;-67
2021/08/20 09:22:46;;;;;;;0.90;0.80;;;;;;;22.15;100.00;-21281.19;5055818;28;20780;-68
2021/08/20 09:25:33;;;;;;;1.10;1.00;;;;;;;21.78;100.00;-21271.09;5055168;28;20428;-68
2021/08/20 09:28:20;;;;;;;0.90;0.90;;;;;;;21.63;100.00;-21267.28;5056694;28;20558;-68
2021/08/20 09:31:03;;;;;;;0.70;0.60;;;;;;;21.79;100.00;-21271.38;5056636;28;20416;-68
2021/08/20 09:33:33;;;;;;;1.37;1.27;;;;;;;21.64;100.00;-21267.56;5043932;28;20412;-68
2021/08/20 09:36:04;;;;;;;0.70;0.60;;;;;;;20.94;100.00;-21248.75;5056398;28;20387;-68
2021/08/20 09:38:32;;;;;;;0.70;0.60;;;;;;;21.29;100.00;-21258.03;5054393;28;20794;-68
2021/08/20 09:41:06;;;;;;;0.77;0.70;;;;;;;21.35;100.00;-21259.78;5056119;28;20438;-67
2021/08/20 09:43:36;;;;;;;0.80;0.70;;;;;;;21.81;100.00;-21271.94;5054788;28;20440;-68
2021/08/20 09:46:06;;;;;;;0.77;0.67;;;;;;;22.05;100.00;-21278.47;5055927;28;20812;-68
2021/08/20 09:48:50;;;;;;;0.70;0.60;;;;;;;22.21;100.00;-21282.56;5056120;28;20562;-68
2021/08/20 09:51:39;;;;;;;0.70;0.60;;;;;;;23.26;100.00;-21310.72;5055995;28;20452;-68
2021/08/20 09:54:09;;;;;;;0.70;0.60;;;;;;;24.29;100.00;-21338.03;5054664;28;21005;-68
2021/08/20 09:56:56;;;;;;;0.80;0.70;;;;;;;23.95;100.00;-21329.09;5056141;28;20968;-68
2021/08/20 09:59:27;;;;;;;0.70;0.60;;;;;;;23.79;100.00;-21324.75;5055887;28;20443;-68
2021/08/20 10:01:56;;;;;;;0.70;0.60;;;;;;;23.83;100.00;-21325.81;5055025;28;20439;-68
2021/08/20 10:04:26;;;;;;;1.10;1.00;;;;;;;23.86;100.00;-21326.63;5055582;28;20409;-68
2021/08/20 10:06:56;;;;;;;0.70;0.60;;;;;;;22.98;100.00;-21303.25;5055347;28;20948;-69
2021/08/20 10:09:29;;;;;;;0.70;0.60;;;;;;;22.46;100.00;-21289.38;5051984;28;21205;-67
2021/08/20 10:12:00;;;;;;;0.70;0.60;;;;;;;22.34;100.00;-21286.09;5046357;28;20425;-68
2021/08/20 10:14:29;;;;;;;0.90;0.83;;;;;;;22.57;100.00;-21292.22;5035720;28;20425;-68
2021/08/20 10:16:57;;;;;;;0.70;0.60;;;;;;;23.66;100.00;-21321.34;5035678;28;20445;-68
2021/08/20 10:19:25;;;;;;;0.80;0.70;;;;;;;23.16;100.00;-21308.00;5046104;28;20769;-68
2021/08/20 10:21:52;;;;;;;0.70;0.60;;;;;;;23.00;100.00;-21303.78;5054350;28;20440;-68
2021/08/20 10:24:20;;;;;;;0.70;0.60;;;;;;;23.30;100.00;-21311.69;5054517;28;20509;-68
2021/08/20 10:26:52;;;;;;;0.70;0.60;;;;;;;23.80;100.00;-21325.16;5053988;28;20932;-68
2021/08/20 10:29:22;;;;;;;0.70;0.60;;;;;;;23.29;100.00;-21311.41;5055607;28;20456;-68
2021/08/20 10:31:50;;;;;;;0.70;0.60;;;;;;;23.74;100.00;-21323.50;5055162;28;20412;-68
2021/08/20 10:34:35;;;;;;;0.70;0.50;;;;;;;23.86;100.00;-21326.78;5055249;28;20589;-68
2021/08/20 10:37:08;;;;;;;1.77;1.47;;;;;;;24.05;100.00;-21331.81;5054998;28;20419;-68
2021/08/20 10:39:38;;;;;;;0.70;0.57;;;;;;;23.74;100.00;-21323.50;5054726;28;20448;-68
2021/08/20 10:42:07;;;;;;;0.70;0.57;;;;;;;22.61;100.00;-21293.31;5054759;28;20499;-68
2021/08/20 10:44:36;;;;;;;0.70;0.60;;;;;;;22.34;100.00;-21286.09;5053807;28;20539;-69
2021/08/20 10:47:03;;;;;;;0.70;0.70;;;;;;;22.54;100.00;-21291.53;5054237;28;20460;-69
2021/08/20 10:49:36;;;;;;;0.80;0.60;;;;;;;22.67;100.00;-21295.09;5054743;28;20460;-68
2021/08/20 10:52:03;;;;;;;0.70;0.60;;;;;;;22.85;100.00;-21299.72;5054974;28;20436;-68
2021/08/20 10:55:18;;;;;;;0.70;0.60;;;;;;;24.49;100.00;-21343.47;5053805;28;20848;-68
2021/08/20 10:58:10;;;;;;;0.70;0.50;;;;;;;25.10;100.00;-21359.50;5054137;28;20519;-68
2021/08/20 11:00:51;;;;;;;1.00;0.83;;;;;;;25.15;100.00;-21361.00;5049274;28;20444;-68
2021/08/20 11:03:39;;;;;;;0.70;0.50;;;;;;;24.94;100.00;-21355.28;5045664;28;20440;-68
2021/08/20 11:06:07;;;;;;;0.70;0.50;;;;;;;24.64;100.00;-21347.28;5054625;28;20451;-69
2021/08/20 11:08:38;;;;;;;0.80;0.60;;;;;;;24.10;100.00;-21333.16;5053108;28;20521;-68
2021/08/20 11:11:43;;;;;;;0.70;0.60;;;;;;;24.27;100.00;-21337.50;5054383;28;20808;-68
2021/08/20 11:14:36;;;;;;;0.70;0.60;;;;;;;24.97;100.00;-21356.25;5054665;28;20432;-68
2021/08/20 11:17:05;;;;;;;0.80;0.60;;;;;;;25.04;100.00;-21358.13;5054702;28;20785;-68
2021/08/20 11:19:59;;;;;;;0.70;0.60;;;;;;;25.51;100.00;-21370.59;5053695;28;20405;-69
2021/08/20 11:22:30;;;;;;;0.70;0.60;;;;;;;26.79;100.00;-21404.34;5051101;28;20450;-69
2021/08/20 11:25:22;;;;;;;0.70;0.50;;;;;;;27.61;100.00;-21426.09;5053471;28;20485;-69
2021/08/20 11:28:01;;;;;;;0.80;0.60;;;;;;;27.52;100.00;-21423.66;5046504;28;20456;-68
2021/08/20 11:30:35;;;;;;;2.40;0.70;;;;;;;26.13;100.00;-21386.88;5053901;28;20416;-68
2021/08/20 11:33:26;;;;;;;0.80;0.60;;;;;;;25.30;100.00;-21364.91;5052911;28;20440;-68
2021/08/20 11:35:56;;;;;;;0.80;0.70;;;;;;;24.65;100.00;-21347.56;5052837;28;20956;-68